Karnet, Australia

12:01 PM AWST on February 20, 2017 (GMT +0800)
millbrook | | Change Station

Elev 1000 ft 32.32 °S, 116.03 °E | Updated 10 seconds ago

Clear
Clear
84.7 °F
Feels Like 83 °F
N
0.7
Wind Variable Wind from NW
Gusts 2.2 mph

Today
High -- | Low -- °F
--% Chance of Precip.
Yesterday
High -- | Low -- °F
Precip. -- in
Pressure 29.89 in
Visibility -9999.0 miles
Clouds
Heat Index 83 °F
Dew Point 54 °F
Humidity 35%
Rainfall 0.00 in
Snow Depth Not available.
5:57 AM 7:01 PM
Last Quarter, 37% visible
METAR YPPH 200330Z 28009KT 220V300 CAVOK 26/14 Q1012 NOSIG
Pressure 29.89 in
Visibility -9999.0 miles
Clouds
Heat Index 83 °F
Dew Point 54 °F
Humidity 35%
Rainfall 0.00 in
Snow Depth Not available.
5:57 AM 7:01 PM
Last Quarter, 37% visible
METAR YPPH 200330Z 28009KT 220V300 CAVOK 26/14 Q1012 NOSIG

Get Your Daily Forecast Email!

Thanks for signing up!

Be on the lookout for a verification email in your inbox.

You'll start receiving the daily forecast at 8 AM.

×

10-Day Weather Forecast

×

Almanac

Astronomy

Feb. 20, 2017 Rise Set
Actual Time
Civil Twilight
Nautical Twilight
Astronomical Twilight
Moon
Length of Visible Light
Length of Day
Tomorrow will be .
, % of the Moon is Illuminated

Today's Extremes

Country Highs Country Lows

Community

WunderPhotos

Upload Photos

1,962,540 photos uploaded!

WunderBlog® & News

Nearby

Air Quality

  Air Quality AQ Index Pollutant
Not available.

Snow Depth

Station Depth Elevation

Earthquake Activity

City Distance Mag. Time & Date
Minimum magnitude displayed is 2.5.

Coastal Water Temperatures

Place Temperature

Stations

Nearby Weather Stations

Station Location Temp. Windchill Dew Point Humidity Wind Precip. Elev Updated Type